createdAt,value
2022-12-08T00:01:07.671Z,5.90
2022-12-08T00:03:35.055Z,5.82
2022-12-08T00:06:23.626Z,5.65
2022-12-08T00:09:08.497Z,6.63
2022-12-08T00:11:35.058Z,6.60
2022-12-08T00:14:01.900Z,5.88
2022-12-08T00:16:28.369Z,6.88
2022-12-08T00:18:54.912Z,6.60
2022-12-08T00:21:21.390Z,6.85
2022-12-08T00:23:47.862Z,6.40
2022-12-08T00:26:14.384Z,6.90
2022-12-08T00:28:40.820Z,7.45
2022-12-08T00:31:09.215Z,7.38
2022-12-08T00:33:36.127Z,7.75
2022-12-08T00:36:10.572Z,6.97
2022-12-08T00:38:37.550Z,8.18
2022-12-08T00:41:07.395Z,8.15
2022-12-08T00:43:33.827Z,8.07
2022-12-08T00:46:00.337Z,8.43
2022-12-08T00:48:26.868Z,8.75
2022-12-08T00:50:53.320Z,9.70
2022-12-08T00:53:19.794Z,9.15
2022-12-08T00:55:46.261Z,8.35
2022-12-08T00:58:12.867Z,8.27
2022-12-08T01:00:43.193Z,8.55
2022-12-08T01:03:10.988Z,8.55
2022-12-08T01:05:37.666Z,8.38
2022-12-08T01:08:08.645Z,8.70
2022-12-08T01:10:36.647Z,7.57
2022-12-08T01:13:03.995Z,8.80
2022-12-08T01:15:30.477Z,9.07
2022-12-08T01:17:56.977Z,8.52
2022-12-08T01:20:23.496Z,8.27
2022-12-08T01:22:50.012Z,7.80
2022-12-08T01:25:16.508Z,8.77
2022-12-08T01:27:42.961Z,8.23
2022-12-08T01:30:10.033Z,8.93
2022-12-08T01:32:36.878Z,9.10
2022-12-08T01:35:03.524Z,9.50
2022-12-08T01:37:30.106Z,10.32
2022-12-08T01:39:56.562Z,9.57
2022-12-08T01:42:23.560Z,9.52
2022-12-08T01:44:54.694Z,10.07
2022-12-08T01:47:22.950Z,10.05
2022-12-08T01:49:49.458Z,9.80
2022-12-08T01:52:29.095Z,10.55
2022-12-08T01:55:15.282Z,8.63
2022-12-08T01:57:47.101Z,10.57
2022-12-08T02:00:16.195Z,9.95
2022-12-08T02:02:54.834Z,10.32
2022-12-08T02:09:47.968Z,10.95
2022-12-08T02:12:15.175Z,11.75
2022-12-08T02:14:41.586Z,10.50
2022-12-08T02:17:47.788Z,11.05
2022-12-08T02:20:37.980Z,10.23
2022-12-08T02:23:41.279Z,10.82
2022-12-08T02:26:45.094Z,10.80
2022-12-08T02:29:20.575Z,10.32
2022-12-08T02:32:34.187Z,11.13
2022-12-08T02:35:14.483Z,11.02
2022-12-08T02:37:44.081Z,11.50
2022-12-08T02:40:21.976Z,10.20
2022-12-08T02:43:02.760Z,9.82
2022-12-08T02:45:38.981Z,10.52
2022-12-08T02:48:05.878Z,9.90
2022-12-08T02:50:32.320Z,9.82
2022-12-08T02:52:58.834Z,9.30
2022-12-08T02:55:30.706Z,8.93
2022-12-08T02:58:35.486Z,9.27
2022-12-08T03:01:29.111Z,8.48
2022-12-08T03:04:22.556Z,8.75
2022-12-08T03:06:58.866Z,9.02
2022-12-08T03:09:50.231Z,8.65
2022-12-08T03:12:32.829Z,8.15
2022-12-08T03:15:06.914Z,8.50
2022-12-08T03:17:33.880Z,7.82
2022-12-08T03:20:07.604Z,7.45
2022-12-08T03:22:34.288Z,8.38
2022-12-08T03:25:01.422Z,8.25
2022-12-08T03:27:31.410Z,8.43
2022-12-08T03:30:00.201Z,8.23
2022-12-08T03:32:30.095Z,8.60
2022-12-08T03:35:00.685Z,8.65
2022-12-08T03:37:28.408Z,9.17
2022-12-08T03:39:55.471Z,9.30
2022-12-08T03:42:22.177Z,11.07
2022-12-08T03:44:48.648Z,10.80
2022-12-08T03:47:15.190Z,11.60
2022-12-08T03:49:41.629Z,11.98
2022-12-08T03:52:08.098Z,12.27
2022-12-08T03:54:34.544Z,14.00
2022-12-08T03:57:01.020Z,12.55
2022-12-08T03:59:27.512Z,14.55
2022-12-08T04:01:54.045Z,15.75
2022-12-08T04:04:20.677Z,15.00
2022-12-08T04:06:47.419Z,14.98
2022-12-08T04:09:14.807Z,17.30
2022-12-08T04:11:41.448Z,16.95
2022-12-08T04:14:07.928Z,17.20
2022-12-08T04:16:34.419Z,15.88
2022-12-08T04:19:01.015Z,16.67
2022-12-08T04:21:27.858Z,17.10
2022-12-08T04:24:00.838Z,17.63
2022-12-08T04:26:28.162Z,17.27
2022-12-08T04:28:54.690Z,17.50
2022-12-08T04:31:21.265Z,17.88
2022-12-08T04:33:48.669Z,19.05
2022-12-08T04:36:15.243Z,18.98
2022-12-08T04:38:41.645Z,18.40
2022-12-08T04:41:08.109Z,18.70
2022-12-08T04:43:35.533Z,18.80
2022-12-08T04:46:02.055Z,18.85
2022-12-08T04:48:28.571Z,19.08
2022-12-08T04:50:55.063Z,18.73
2022-12-08T04:53:21.624Z,19.70
2022-12-08T04:55:49.638Z,18.42
2022-12-08T04:58:18.551Z,18.35
2022-12-08T05:00:45.870Z,19.25
2022-12-08T05:03:13.353Z,18.73
2022-12-08T05:05:40.094Z,19.65
2022-12-08T05:08:06.605Z,19.27
2022-12-08T05:10:33.350Z,19.05
2022-12-08T05:13:00.559Z,20.27
2022-12-08T05:15:27.369Z,20.00
2022-12-08T05:17:54.031Z,20.23
2022-12-08T05:20:20.500Z,19.65
2022-12-08T05:22:47.104Z,19.70
2022-12-08T05:25:13.715Z,20.30
2022-12-08T05:27:40.190Z,20.35
2022-12-08T05:30:07.438Z,20.90
2022-12-08T05:32:34.140Z,20.50
2022-12-08T05:35:00.578Z,20.27
2022-12-08T05:37:27.047Z,20.55
2022-12-08T05:39:53.492Z,21.63
2022-12-08T05:42:24.603Z,22.25
2022-12-08T05:44:51.469Z,21.02
2022-12-08T05:47:17.904Z,21.95
2022-12-08T05:49:44.929Z,21.85
2022-12-08T05:52:11.347Z,22.17
2022-12-08T05:54:38.143Z,22.88
2022-12-08T05:57:04.729Z,21.60
2022-12-08T05:59:31.168Z,23.00
2022-12-08T06:01:57.768Z,22.70
2022-12-08T06:04:24.388Z,22.50
2022-12-08T06:06:50.846Z,21.73
2022-12-08T06:09:17.291Z,23.88
2022-12-08T06:11:43.808Z,22.92
2022-12-08T06:14:11.933Z,23.63
2022-12-08T06:16:38.572Z,22.77
2022-12-08T06:19:05.138Z,23.17
2022-12-08T06:21:31.704Z,23.98
2022-12-08T06:23:58.189Z,22.70
2022-12-08T06:26:24.825Z,22.38
2022-12-08T06:28:51.733Z,23.08
2022-12-08T06:31:21.179Z,22.00
2022-12-08T06:33:47.937Z,23.60
2022-12-08T06:36:16.346Z,23.30
2022-12-08T06:38:43.968Z,22.98
2022-12-08T06:41:12.055Z,22.38
2022-12-08T06:43:38.733Z,24.20
2022-12-08T06:46:07.680Z,24.63
2022-12-08T06:48:34.385Z,22.20
2022-12-08T06:51:15.147Z,23.33
2022-12-08T06:53:42.460Z,23.47
2022-12-08T06:56:09.427Z,23.40
2022-12-08T06:58:36.076Z,23.27
2022-12-08T07:01:11.100Z,22.95
2022-12-08T07:03:38.907Z,23.25
2022-12-08T07:06:06.475Z,22.95
2022-12-08T07:08:34.116Z,23.60
2022-12-08T07:11:06.595Z,24.33
2022-12-08T07:13:33.047Z,23.33
2022-12-08T07:15:59.442Z,23.23
2022-12-08T07:18:25.903Z,23.02
2022-12-08T07:20:52.350Z,23.48
2022-12-08T07:23:19.033Z,23.10
2022-12-08T07:25:45.945Z,23.60
2022-12-08T07:28:18.120Z,23.25
2022-12-08T07:30:46.620Z,22.13
2022-12-08T07:33:13.664Z,22.63
2022-12-08T07:35:43.821Z,23.33
2022-12-08T07:38:20.598Z,23.88
2022-12-08T07:40:49.916Z,22.30
2022-12-08T07:43:16.441Z,22.92
2022-12-08T07:45:43.450Z,22.75
2022-12-08T07:48:13.206Z,22.50
2022-12-08T07:50:42.168Z,24.17
2022-12-08T07:53:09.688Z,22.05
2022-12-08T07:55:40.902Z,22.23
2022-12-08T07:58:10.757Z,21.25
2022-12-08T08:00:40.631Z,22.67
2022-12-08T08:03:13.239Z,23.10
2022-12-08T08:05:43.145Z,21.50
2022-12-08T08:08:14.182Z,20.02
2022-12-08T08:10:41.107Z,20.80
2022-12-08T08:13:11.051Z,20.17
2022-12-08T08:15:37.686Z,21.20
2022-12-08T08:18:07.627Z,21.73
2022-12-08T08:20:34.135Z,21.73
2022-12-08T08:23:07.893Z,21.63
2022-12-08T08:25:37.127Z,20.85
2022-12-08T08:28:05.997Z,21.73
2022-12-08T08:30:32.574Z,21.30
2022-12-08T08:33:08.462Z,21.48
2022-12-08T08:35:35.066Z,21.42
2022-12-08T08:38:01.895Z,22.52
2022-12-08T08:40:28.461Z,21.92
2022-12-08T08:42:55.200Z,21.70
2022-12-08T08:45:21.900Z,21.20
2022-12-08T08:47:48.422Z,22.40
2022-12-08T08:50:15.052Z,21.73
2022-12-08T08:52:41.743Z,20.58
2022-12-08T08:55:11.365Z,21.77
2022-12-08T08:57:38.238Z,20.58
2022-12-08T09:00:10.324Z,21.75
2022-12-08T09:02:38.436Z,20.85
2022-12-08T09:05:09.373Z,20.52
2022-12-08T09:07:36.388Z,22.08
2022-12-08T09:10:03.725Z,21.10
2022-12-08T09:12:30.888Z,22.02
2022-12-08T09:14:57.733Z,22.98
2022-12-08T09:17:27.707Z,23.30
2022-12-08T09:19:55.015Z,20.85
2022-12-08T09:22:30.643Z,22.70
2022-12-08T09:25:00.772Z,21.77
2022-12-08T09:27:31.231Z,20.67
2022-12-08T09:29:59.921Z,21.90
2022-12-08T09:32:32.889Z,21.65
2022-12-08T09:34:59.845Z,21.88
2022-12-08T09:37:26.721Z,22.08
2022-12-08T09:39:59.973Z,21.02
2022-12-08T09:43:07.539Z,21.63
2022-12-08T09:45:41.552Z,21.35
2022-12-08T09:48:19.308Z,22.63
2022-12-08T09:50:53.781Z,20.88
2022-12-08T09:53:32.082Z,21.60
2022-12-08T09:58:53.172Z,21.02
2022-12-08T10:01:23.510Z,21.23
2022-12-08T10:03:59.780Z,20.45
2022-12-08T10:06:47.907Z,20.35
2022-12-08T10:09:23.464Z,21.40
2022-12-08T10:12:21.934Z,20.55
2022-12-08T10:15:22.280Z,18.98
2022-12-08T10:17:59.016Z,20.15
2022-12-08T10:20:31.496Z,19.60
2022-12-08T10:23:34.491Z,20.08
2022-12-08T10:26:20.236Z,19.70
2022-12-08T10:28:56.425Z,19.38
2022-12-08T10:31:27.721Z,21.52
2022-12-08T10:34:14.104Z,20.05
2022-12-08T10:36:58.364Z,19.20
2022-12-08T10:39:35.231Z,18.73
2022-12-08T10:42:07.844Z,19.23
2022-12-08T10:44:50.100Z,18.60
2022-12-08T10:47:36.265Z,20.08
2022-12-08T10:50:07.660Z,19.33
2022-12-08T10:55:17.764Z,17.75
2022-12-08T10:57:44.550Z,16.80
2022-12-08T11:00:17.394Z,18.17
2022-12-08T11:03:00.241Z,17.02
2022-12-08T11:05:34.311Z,15.30
2022-12-08T11:08:03.452Z,15.63
2022-12-08T11:11:11.367Z,16.50
2022-12-08T11:13:43.964Z,16.23
2022-12-08T11:16:15.142Z,15.38
2022-12-08T11:18:44.747Z,16.08
2022-12-08T11:21:17.535Z,16.52
2022-12-08T11:23:52.023Z,16.63
2022-12-08T11:26:36.993Z,15.80
2022-12-08T11:29:04.555Z,15.73
2022-12-08T11:31:40.876Z,17.95
2022-12-08T11:34:19.593Z,16.98
2022-12-08T11:36:54.229Z,16.35
2022-12-08T11:39:22.346Z,16.65
2022-12-08T11:41:58.912Z,17.60
2022-12-08T11:44:58.907Z,18.30
2022-12-08T11:47:35.670Z,23.30
2022-12-08T11:50:34.119Z,17.92
2022-12-08T11:53:01.725Z,17.65
2022-12-08T11:55:49.917Z,18.38
2022-12-08T11:58:23.947Z,17.30
2022-12-08T12:00:51.017Z,17.40
2022-12-08T12:04:13.699Z,15.80
2022-12-08T12:07:19.488Z,15.20
2022-12-08T12:10:09.520Z,16.58
2022-12-08T12:13:20.834Z,15.52
2022-12-08T12:16:43.639Z,14.50
2022-12-08T12:19:32.648Z,15.18
2022-12-08T12:22:29.585Z,14.40
2022-12-08T12:25:02.757Z,14.95
2022-12-08T12:27:37.479Z,16.42
2022-12-08T12:30:25.374Z,16.27
2022-12-08T12:32:54.054Z,16.42
2022-12-08T12:35:43.700Z,17.13
2022-12-08T12:38:57.682Z,17.23
2022-12-08T12:41:47.358Z,17.77
2022-12-08T12:44:13.780Z,18.35
2022-12-08T12:46:42.212Z,22.00
2022-12-08T12:49:39.942Z,17.80
2022-12-08T12:52:34.147Z,16.92
2022-12-08T12:55:00.723Z,17.95
2022-12-08T12:57:40.126Z,17.38
2022-12-08T13:00:13.143Z,16.50
2022-12-08T13:02:49.829Z,16.80
2022-12-08T13:05:28.077Z,15.63
2022-12-08T13:07:58.363Z,15.07
2022-12-08T13:10:35.094Z,15.43
2022-12-08T13:13:10.690Z,17.02
2022-12-08T13:15:40.041Z,15.25
2022-12-08T13:18:16.482Z,16.20
2022-12-08T13:20:48.145Z,17.63
2022-12-08T13:23:37.258Z,17.42
2022-12-08T13:26:20.171Z,17.45
2022-12-08T13:28:58.779Z,17.10
2022-12-08T13:31:50.657Z,18.90
2022-12-08T13:34:57.953Z,17.98
2022-12-08T13:37:53.945Z,19.13
2022-12-08T13:40:32.139Z,18.98
2022-12-08T13:43:25.689Z,19.58
2022-12-08T13:50:23.075Z,19.80
2022-12-08T13:57:28.835Z,21.17
2022-12-08T14:00:04.781Z,19.10
2022-12-08T14:02:47.053Z,19.90
2022-12-08T14:05:18.633Z,20.42
2022-12-08T14:07:47.818Z,20.42
2022-12-08T14:10:40.698Z,19.95
2022-12-08T14:13:12.186Z,19.73
2022-12-08T14:15:40.248Z,18.08
2022-12-08T14:18:23.442Z,20.00
2022-12-08T14:23:50.375Z,17.67
2022-12-08T14:26:17.931Z,18.63
2022-12-08T14:28:45.167Z,18.20
2022-12-08T14:31:14.121Z,17.77
2022-12-08T14:33:41.347Z,18.67
2022-12-08T14:36:10.307Z,18.27
2022-12-08T14:38:36.969Z,17.02
2022-12-08T14:41:08.928Z,18.10
2022-12-08T14:43:36.306Z,16.52
2022-12-08T14:46:21.082Z,15.80
2022-12-08T14:48:47.769Z,14.90
2022-12-08T14:51:23.215Z,14.57
2022-12-08T14:53:58.792Z,12.77
2022-12-08T14:56:52.325Z,13.75
2022-12-08T14:59:32.469Z,15.23
2022-12-08T15:02:29.272Z,13.27
2022-12-08T15:04:58.699Z,13.48
2022-12-08T15:07:30.302Z,12.68
2022-12-08T15:13:22.161Z,14.20
2022-12-08T15:15:51.883Z,16.27
2022-12-08T15:18:38.042Z,16.20
2022-12-08T15:21:09.158Z,16.85
2022-12-08T15:23:48.472Z,16.10
2022-12-08T15:26:23.973Z,16.35
2022-12-08T15:28:58.412Z,13.85
2022-12-08T15:31:25.116Z,13.77
2022-12-08T15:33:51.928Z,14.07
2022-12-08T15:36:21.897Z,14.60
2022-12-08T15:38:48.520Z,14.20
2022-12-08T15:41:15.489Z,17.13
2022-12-08T15:43:45.422Z,16.13
2022-12-08T15:46:16.803Z,14.32
2022-12-08T15:48:46.851Z,14.15
2022-12-08T15:52:11.068Z,14.55
2022-12-08T15:54:44.032Z,14.70
2022-12-08T15:58:17.103Z,15.07
2022-12-08T16:00:50.417Z,15.90
2022-12-08T16:09:17.291Z,16.05
2022-12-08T16:12:07.876Z,15.02
2022-12-08T16:17:22.704Z,14.27
2022-12-08T16:19:49.482Z,15.35
2022-12-08T16:25:18.367Z,16.23
2022-12-08T16:28:17.247Z,15.63
2022-12-08T16:30:33.065Z,15.93
2022-12-08T16:32:59.665Z,17.40
2022-12-08T16:35:26.189Z,19.33
2022-12-08T16:37:55.364Z,18.90
2022-12-08T16:40:25.069Z,20.20
2022-12-08T16:42:51.763Z,20.75
2022-12-08T16:45:21.179Z,19.80
2022-12-08T16:47:56.673Z,17.20
2022-12-08T16:50:29.398Z,17.85
2022-12-08T16:53:07.398Z,17.02
2022-12-08T16:55:35.281Z,16.30
2022-12-08T16:58:07.918Z,15.13
2022-12-08T17:00:38.247Z,16.02
2022-12-08T17:03:11.769Z,15.90
2022-12-08T17:05:52.493Z,17.73
2022-12-08T17:08:19.327Z,17.73
2022-12-08T17:11:06.150Z,17.75
2022-12-08T17:13:33.316Z,18.48
2022-12-08T17:16:00.083Z,17.33
2022-12-08T17:18:30.139Z,18.05
2022-12-08T17:20:56.944Z,16.88
2022-12-08T17:23:23.637Z,17.25
2022-12-08T17:26:00.904Z,17.13
2022-12-08T17:28:58.443Z,16.77
2022-12-08T17:31:16.147Z,17.65
2022-12-08T17:33:42.966Z,17.85
2022-12-08T17:36:13.712Z,17.60
2022-12-08T17:38:40.577Z,11.85
2022-12-08T17:41:08.906Z,17.98
2022-12-08T17:43:36.230Z,16.88
2022-12-08T17:46:03.246Z,18.08
2022-12-08T17:48:30.548Z,17.58
2022-12-08T17:50:57.183Z,17.50
2022-12-08T17:53:23.845Z,18.73
2022-12-08T17:55:55.538Z,19.10
2022-12-08T17:58:23.202Z,18.35
2022-12-08T18:00:50.891Z,17.83
2022-12-08T18:03:19.189Z,19.67
2022-12-08T18:05:49.519Z,19.98
2022-12-08T18:10:59.318Z,21.30
2022-12-08T18:13:26.142Z,20.40
2022-12-08T18:16:06.392Z,20.10
2022-12-08T18:18:34.774Z,20.45
2022-12-08T18:21:04.557Z,20.80
2022-12-08T18:23:33.894Z,21.25
2022-12-08T18:26:00.653Z,22.30
2022-12-08T18:28:27.384Z,21.52
2022-12-08T18:30:54.058Z,22.23
2022-12-08T18:33:20.845Z,21.42
2022-12-08T18:35:47.449Z,21.77
2022-12-08T18:38:17.266Z,22.63
2022-12-08T18:40:43.890Z,23.23
2022-12-08T18:43:10.655Z,23.38
2022-12-08T18:45:39.499Z,22.58
2022-12-08T18:48:07.093Z,22.92
2022-12-08T18:50:33.871Z,24.23
2022-12-08T18:53:00.485Z,24.55
2022-12-08T18:55:27.081Z,25.25
2022-12-08T18:57:53.796Z,23.92
2022-12-08T19:00:21.070Z,22.88
2022-12-08T19:02:47.672Z,23.65
2022-12-08T19:05:15.427Z,22.58
2022-12-08T19:07:42.862Z,23.50
2022-12-08T19:10:10.378Z,23.70
2022-12-08T19:12:37.148Z,24.58
2022-12-08T19:15:04.216Z,23.67
2022-12-08T19:17:31.014Z,23.98
2022-12-08T19:19:57.459Z,23.55
2022-12-08T19:22:23.994Z,27.80
2022-12-08T19:24:50.465Z,27.15
2022-12-08T19:27:17.001Z,26.08
2022-12-08T19:29:43.424Z,26.52
2022-12-08T19:32:09.873Z,25.95
2022-12-08T19:34:36.413Z,24.08
2022-12-08T19:37:03.070Z,25.45
2022-12-08T19:39:48.116Z,24.10
2022-12-08T19:42:35.807Z,23.73
2022-12-08T19:45:15.333Z,23.75
2022-12-08T19:47:42.365Z,23.15
2022-12-08T19:50:33.250Z,25.35
2022-12-08T19:53:00.782Z,24.07
2022-12-08T19:55:27.455Z,23.58
2022-12-08T19:57:54.649Z,23.80
2022-12-08T20:00:21.315Z,23.20
2022-12-08T20:02:47.935Z,22.98
2022-12-08T20:05:15.117Z,23.33
2022-12-08T20:07:41.956Z,23.35
2022-12-08T20:10:16.036Z,23.42
2022-12-08T20:12:42.583Z,21.40
2022-12-08T20:15:10.217Z,22.10
2022-12-08T20:17:38.215Z,22.10
2022-12-08T20:20:07.709Z,24.55
2022-12-08T20:22:34.358Z,24.13
2022-12-08T20:25:01.249Z,23.23
2022-12-08T20:27:28.955Z,23.35
2022-12-08T20:29:55.388Z,22.02
2022-12-08T20:32:21.861Z,25.55
2022-12-08T20:34:48.283Z,22.15
2022-12-08T20:37:14.760Z,22.40
2022-12-08T20:39:41.320Z,21.10
2022-12-08T20:42:12.764Z,21.83
2022-12-08T20:44:43.270Z,21.48
2022-12-08T20:47:11.146Z,16.53
2022-12-08T20:49:37.852Z,20.67
2022-12-08T20:52:04.648Z,22.25
2022-12-08T20:54:31.145Z,23.35
2022-12-08T20:56:57.826Z,22.90
2022-12-08T20:59:26.355Z,22.08
2022-12-08T21:01:53.930Z,22.58
2022-12-08T21:04:20.801Z,21.92
2022-12-08T21:06:47.795Z,21.75
2022-12-08T21:09:14.511Z,21.55
2022-12-08T21:11:42.461Z,21.70
2022-12-08T21:14:09.110Z,21.50
2022-12-08T21:16:35.878Z,21.05
2022-12-08T21:19:02.784Z,21.77
2022-12-08T21:21:29.496Z,21.90
2022-12-08T21:23:56.165Z,22.63
2022-12-08T21:26:26.011Z,22.92
2022-12-08T21:28:54.717Z,23.08
2022-12-08T21:31:21.934Z,23.92
2022-12-08T21:33:49.180Z,22.63
2022-12-08T21:36:19.152Z,24.02
2022-12-08T21:38:46.917Z,22.88
2022-12-08T21:41:36.932Z,22.95
2022-12-08T21:44:04.811Z,22.75
2022-12-08T21:46:31.694Z,24.10
2022-12-08T21:48:58.326Z,22.67
2022-12-08T21:51:25.176Z,24.67
2022-12-08T21:53:51.707Z,23.48
2022-12-08T21:56:18.365Z,22.67
2022-12-08T21:58:44.964Z,23.13
2022-12-08T22:01:12.110Z,22.80
2022-12-08T22:03:39.894Z,24.08
2022-12-08T22:06:12.359Z,24.20
2022-12-08T22:08:39.360Z,22.92
2022-12-08T22:11:08.494Z,21.65
2022-12-08T22:13:36.747Z,21.77
2022-12-08T22:16:06.123Z,23.02
2022-12-08T22:18:34.267Z,22.73
2022-12-08T22:21:01.219Z,22.23
2022-12-08T22:23:28.492Z,22.58
2022-12-08T22:26:00.084Z,23.08
2022-12-08T22:28:27.993Z,23.85
2022-12-08T22:30:54.475Z,22.05
2022-12-08T22:33:21.207Z,22.48
2022-12-08T22:36:08.086Z,22.40
2022-12-08T22:38:36.431Z,22.85
2022-12-08T22:41:05.213Z,22.42
2022-12-08T22:43:32.893Z,22.52
2022-12-08T22:45:59.875Z,23.48
2022-12-08T22:48:26.382Z,23.17
2022-12-08T22:50:59.667Z,22.45
2022-12-08T22:53:26.380Z,23.67
2022-12-08T22:55:52.904Z,22.67
2022-12-08T22:58:19.962Z,22.70
2022-12-08T23:00:46.496Z,22.80
2022-12-08T23:03:13.090Z,22.90
2022-12-08T23:05:40.593Z,24.38
2022-12-08T23:08:08.806Z,21.90
2022-12-08T23:10:35.838Z,23.42
2022-12-08T23:13:04.157Z,22.83
2022-12-08T23:15:31.199Z,24.23
2022-12-08T23:17:57.995Z,21.63
2022-12-08T23:20:24.647Z,21.50
2022-12-08T23:22:51.199Z,22.83
2022-12-08T23:25:18.560Z,23.73
2022-12-08T23:27:45.684Z,24.00
2022-12-08T23:30:12.683Z,26.50
2022-12-08T23:32:39.312Z,27.80
2022-12-08T23:35:06.725Z,25.88
2022-12-08T23:37:33.170Z,26.40
2022-12-08T23:39:59.626Z,26.13
2022-12-08T23:42:26.427Z,27.15
2022-12-08T23:44:52.925Z,27.05
2022-12-08T23:47:19.402Z,28.30
2022-12-08T23:49:45.922Z,28.08
2022-12-08T23:52:13.767Z,28.05
2022-12-08T23:54:40.504Z,29.85
2022-12-08T23:57:07.867Z,28.98
2022-12-08T23:59:34.315Z,30.65
